Time;durP1;ratioP1;P1;durP2;ratioP2;P2;SDS_P1;SDS_P2;PMS_P1;PMS_P2;Temp;Humidity;BMP_temperature;BMP_pressure;BME280_temperature;BME280_humidity;BME280_pressure;Samples;Min_cycle;Max_cycle;Signal;HPM_P1;HPM_P2
2023/04/05 00:01:59;;;;;;;9.53;5.20;;;;;;;-2.54;100.00;96853.94;5076117;28;20559;-73
2023/04/05 00:04:27;;;;;;;11.03;5.10;;;;;;;-2.32;100.00;96890.34;5075757;28;20471;-73
2023/04/05 00:06:56;;;;;;;8.17;4.57;;;;;;;-2.48;100.00;96876.31;5075491;28;20856;-73
2023/04/05 00:09:23;;;;;;;5.47;4.03;;;;;;;-2.42;100.00;96865.03;5093846;28;20526;-74
2023/04/05 00:11:49;;;;;;;5.23;4.73;;;;;;;-2.26;100.00;96886.06;5071397;28;20539;-74
2023/04/05 00:14:16;;;;;;;6.87;4.43;;;;;;;-2.32;100.00;96882.56;5055732;28;20432;-74
2023/04/05 00:16:43;;;;;;;7.80;4.87;;;;;;;-2.57;100.00;96851.81;5055292;28;20949;-73
2023/04/05 00:19:12;;;;;;;6.83;4.93;;;;;;;-2.54;100.00;96869.47;5055531;28;20852;-73
2023/04/05 00:21:39;;;;;;;9.00;5.37;;;;;;;-2.40;100.00;96877.78;5035176;28;20485;-73
2023/04/05 00:24:08;;;;;;;6.43;3.93;;;;;;;-2.34;100.00;96889.78;5027396;28;20459;-73
2023/04/05 00:26:35;;;;;;;5.07;4.07;;;;;;;-2.43;100.00;96868.66;5034841;28;20461;-73
2023/04/05 00:29:02;;;;;;;4.17;3.77;;;;;;;-2.56;100.00;96853.38;5057314;28;20432;-74
2023/04/05 00:31:29;;;;;;;5.00;4.00;;;;;;;-2.49;100.00;96864.41;5048498;28;20439;-74
2023/04/05 00:33:56;;;;;;;6.10;4.07;;;;;;;-2.37;100.00;96885.09;5093433;28;20437;-74
2023/04/05 00:36:23;;;;;;;3.47;3.17;;;;;;;-2.44;100.00;96879.22;5075244;28;20482;-74
2023/04/05 00:38:50;;;;;;;2.97;2.77;;;;;;;-2.84;100.00;96823.06;5073324;28;20811;-74
2023/04/05 00:41:16;;;;;;;7.30;3.10;;;;;;;-2.64;100.00;96864.09;5038631;28;20489;-74
2023/04/05 00:43:43;;;;;;;5.00;3.83;;;;;;;-2.68;100.00;96881.88;5072857;28;20460;-74
2023/04/05 00:46:10;;;;;;;7.77;3.53;;;;;;;-3.13;100.00;96835.16;5067434;28;20441;-74
2023/04/05 00:48:37;;;;;;;3.70;3.40;;;;;;;-2.84;100.00;96872.22;5072850;28;20456;-74
2023/04/05 00:51:08;;;;;;;3.77;3.20;;;;;;;-2.73;100.00;96868.06;5035160;28;20533;-74
2023/04/05 00:53:36;;;;;;;3.27;2.97;;;;;;;-3.05;100.00;96815.94;5046602;28;20448;-74
2023/04/05 00:56:03;;;;;;;3.10;2.77;;;;;;;-2.93;100.00;96831.44;5038642;28;20475;-74
2023/04/05 00:58:30;;;;;;;3.10;2.80;;;;;;;-3.15;100.00;96810.53;5054833;28;20443;-74
2023/04/05 01:01:05;;;;;;;3.77;2.73;;;;;;;-2.80;100.00;96857.84;5059506;28;20428;-74
2023/04/05 01:03:34;;;;;;;4.10;3.03;;;;;;;-2.75;100.00;96854.56;5038130;28;20503;-74
2023/04/05 01:06:34;;;;;;;4.07;3.20;;;;;;;-3.02;100.00;96833.56;5054851;28;20432;-74
2023/04/05 01:09:13;;;;;;;3.50;3.20;;;;;;;-3.01;100.00;96835.16;5037483;28;20475;-74
2023/04/05 01:11:42;;;;;;;6.37;3.50;;;;;;;-3.19;100.00;96812.81;5054738;28;20880;-74
2023/04/05 01:14:09;;;;;;;6.60;3.60;;;;;;;-3.11;100.00;96846.06;5082658;28;20971;-74
2023/04/05 01:16:36;;;;;;;3.03;2.73;;;;;;;-3.02;100.00;96849.09;5074382;28;20431;-74
2023/04/05 01:19:03;;;;;;;3.17;2.83;;;;;;;-3.12;100.00;96820.44;5074810;28;20518;-74
2023/04/05 01:21:38;;;;;;;8.83;3.57;;;;;;;-2.89;100.00;96832.53;5074209;28;20525;-74
2023/04/05 01:24:14;;;;;;;2.63;2.43;;;;;;;-2.97;100.00;96839.63;5057716;28;20471;-74
2023/04/05 01:27:15;;;;;;;3.10;2.80;;;;;;;-3.09;100.00;96841.44;5074331;28;20936;-74
2023/04/05 01:30:03;;;;;;;7.63;3.53;;;;;;;-3.13;100.00;96840.31;5074556;28;20531;-74
2023/04/05 01:32:58;;;;;;;3.37;3.07;;;;;;;-3.12;100.00;96839.31;5074411;28;20550;-74
2023/04/05 01:35:38;;;;;;;3.30;3.00;;;;;;;-3.28;100.00;96807.19;5067508;28;20435;-74
2023/04/05 01:38:09;;;;;;;3.23;2.93;;;;;;;-3.13;100.00;96832.56;5074376;28;20522;-74
2023/04/05 01:40:37;;;;;;;3.10;2.87;;;;;;;-3.33;100.00;96806.28;5058752;28;20482;-74
2023/04/05 01:43:15;;;;;;;3.13;2.90;;;;;;;-3.34;100.00;96800.34;5050579;28;20496;-74
2023/04/05 01:45:43;;;;;;;4.07;3.00;;;;;;;-3.12;100.00;96826.38;5050629;28;20483;-74
2023/04/05 01:48:10;;;;;;;6.70;3.53;;;;;;;-3.20;100.00;96825.97;5054114;28;20428;-74
2023/04/05 01:50:37;;;;;;;4.63;4.07;;;;;;;-3.71;100.00;96801.56;5054973;28;20564;-74
2023/04/05 01:53:06;;;;;;;4.10;2.80;;;;;;;-3.60;100.00;96813.72;5073972;28;20444;-74
2023/04/05 01:55:34;;;;;;;7.80;3.07;;;;;;;-3.73;100.00;96803.59;5050123;28;20445;-74
2023/04/05 01:58:01;;;;;;;5.20;2.83;;;;;;;-3.71;100.00;96793.81;5044708;28;20443;-74
2023/04/05 02:00:27;;;;;;;4.13;2.83;;;;;;;-3.81;100.00;96778.06;5050644;28;20995;-73
2023/04/05 02:02:55;;;;;;;4.20;3.00;;;;;;;-3.83;100.00;96787.84;5053667;28;20475;-73
2023/04/05 02:05:22;;;;;;;3.90;3.23;;;;;;;-3.88;100.00;96771.19;5051995;28;20796;-74
2023/04/05 02:07:48;;;;;;;7.90;3.40;;;;;;;-3.86;100.00;96776.19;5050875;28;20942;-74
2023/04/05 02:10:17;;;;;;;3.17;2.93;;;;;;;-3.76;100.00;96785.94;5070495;28;20857;-74
2023/04/05 02:12:43;;;;;;;3.70;2.60;;;;;;;-3.73;100.00;96790.66;5062069;28;20454;-74
2023/04/05 02:15:11;;;;;;;3.43;3.13;;;;;;;-3.71;100.00;96794.59;5050356;28;20441;-74
2023/04/05 02:17:38;;;;;;;4.50;3.80;;;;;;;-3.84;100.00;96774.16;5045995;28;20436;-74
2023/04/05 02:20:06;;;;;;;6.10;4.10;;;;;;;-3.52;100.00;96810.00;5053800;28;20432;-74
2023/04/05 02:22:33;;;;;;;7.20;5.53;;;;;;;-3.79;100.00;96776.06;5033761;28;20568;-74
2023/04/05 02:25:00;;;;;;;4.20;3.57;;;;;;;-3.74;100.00;96771.00;5049769;28;20464;-73
2023/04/05 02:27:27;;;;;;;7.30;4.03;;;;;;;-3.44;100.00;96804.50;5058900;28;20865;-74
2023/04/05 02:29:56;;;;;;;5.10;4.20;;;;;;;-3.64;100.00;96795.25;5073680;28;20439;-74
2023/04/05 02:32:23;;;;;;;4.40;3.37;;;;;;;-3.85;100.00;96770.00;5091934;28;20483;-74
2023/04/05 02:34:51;;;;;;;2.80;2.60;;;;;;;-3.88;100.00;96760.09;5053944;28;20800;-74
2023/04/05 02:37:21;;;;;;;3.70;3.40;;;;;;;-3.76;100.00;96771.22;5050436;28;20466;-73
2023/04/05 02:39:47;;;;;;;3.80;3.20;;;;;;;-3.92;100.00;96751.22;5064614;28;20508;-74
2023/04/05 02:42:14;;;;;;;4.57;4.17;;;;;;;-3.81;100.00;96778.88;5051659;28;20463;-73
2023/04/05 02:44:40;;;;;;;3.90;3.53;;;;;;;-3.82;100.00;96795.38;5058365;28;20420;-74
2023/04/05 02:47:09;;;;;;;3.67;3.37;;;;;;;-4.33;100.00;96746.91;5053449;28;20954;-74
2023/04/05 02:49:36;;;;;;;3.40;3.10;;;;;;;-3.92;100.00;96788.16;5053570;28;20874;-74
2023/04/05 02:52:04;;;;;;;7.60;3.63;;;;;;;-4.04;100.00;96771.88;5053293;28;20472;-74
2023/04/05 02:54:31;;;;;;;3.97;3.57;;;;;;;-3.91;100.00;96774.25;5037080;28;20440;-74
2023/04/05 02:57:01;;;;;;;4.23;3.60;;;;;;;-4.03;100.00;96754.56;5053424;28;20531;-74
2023/04/05 02:59:32;;;;;;;4.33;4.00;;;;;;;-3.84;100.00;96794.81;5053548;28;20440;-74
2023/04/05 03:02:00;;;;;;;7.07;4.13;;;;;;;-4.23;100.00;96742.78;5037745;28;20978;-74
2023/04/05 03:04:27;;;;;;;7.83;4.07;;;;;;;-4.13;100.00;96762.88;5040582;28;20475;-74
2023/04/05 03:07:03;;;;;;;4.40;3.27;;;;;;;-4.33;100.00;96783.03;5056794;28;20506;-74
2023/04/05 03:09:33;;;;;;;5.93;4.20;;;;;;;-4.13;100.00;96790.50;5037044;28;20436;-74
2023/04/05 03:12:05;;;;;;;3.50;3.20;;;;;;;-4.33;100.00;96758.00;5056862;28;20502;-74
2023/04/05 03:14:35;;;;;;;4.03;3.33;;;;;;;-4.36;100.00;96760.25;5038629;28;20485;-74
2023/04/05 03:17:02;;;;;;;3.80;3.50;;;;;;;-4.37;100.00;96767.19;5069578;28;20440;-74
2023/04/05 03:19:35;;;;;;;3.93;3.40;;;;;;;-4.29;100.00;96779.78;5069001;28;20421;-73
2023/04/05 03:22:15;;;;;;;3.93;2.67;;;;;;;-4.65;100.00;96746.38;5077108;28;20536;-74
2023/04/05 03:24:42;;;;;;;7.70;3.50;;;;;;;-4.56;100.00;96761.28;5077217;28;20494;-74
2023/04/05 03:27:12;;;;;;;3.00;2.80;;;;;;;-4.64;100.00;96761.63;5076964;28;20534;-73
2023/04/05 03:29:54;;;;;;;3.90;2.90;;;;;;;-4.76;100.00;96753.84;5076634;28;20442;-74
2023/04/05 03:32:20;;;;;;;3.67;3.30;;;;;;;-4.69;100.00;96787.25;5076514;28;20509;-73
2023/04/05 03:34:54;;;;;;;4.77;3.77;;;;;;;-4.84;100.00;96781.69;5076433;28;20482;-74
2023/04/05 03:37:22;;;;;;;5.77;4.13;;;;;;;-4.95;100.00;96770.31;5059791;28;20508;-73
2023/04/05 03:39:58;;;;;;;6.57;3.77;;;;;;;-5.05;100.00;96739.13;5073844;28;20454;-73
2023/04/05 03:42:25;;;;;;;4.57;3.60;;;;;;;-5.00;100.00;96735.91;5068051;28;20817;-73
2023/04/05 03:44:53;;;;;;;4.07;3.67;;;;;;;-4.86;100.00;96756.13;5068212;28;20479;-74
2023/04/05 03:47:19;;;;;;;5.60;4.37;;;;;;;-5.00;100.00;96735.91;5056527;28;20464;-73
2023/04/05 03:49:46;;;;;;;4.60;3.17;;;;;;;-4.63;100.00;96786.41;5047009;28;21033;-74
2023/04/05 03:52:13;;;;;;;4.30;3.87;;;;;;;-4.66;100.00;96786.06;5052566;28;20519;-73
2023/04/05 03:54:43;;;;;;;5.57;3.70;;;;;;;-4.68;100.00;96780.31;5060437;28;20437;-74
2023/04/05 03:57:11;;;;;;;6.50;4.10;;;;;;;-4.66;100.00;96780.91;5050745;28;20445;-74
2023/04/05 03:59:40;;;;;;;6.57;4.13;;;;;;;-4.67;100.00;96777.53;5044662;28;20856;-74
2023/04/05 04:02:07;;;;;;;5.43;4.00;;;;;;;-4.77;100.00;96756.63;5072793;28;20465;-74
2023/04/05 04:04:34;;;;;;;7.27;4.47;;;;;;;-4.96;100.00;96744.75;5075768;28;20975;-74
2023/04/05 04:07:01;;;;;;;5.77;4.50;;;;;;;-4.91;100.00;96755.22;5056968;28;20432;-73
2023/04/05 04:09:28;;;;;;;5.20;4.73;;;;;;;-4.87;100.00;96757.13;5039559;28;20814;-74
2023/04/05 04:11:59;;;;;;;7.67;5.53;;;;;;;-4.82;100.00;96741.00;5039654;28;20475;-73
2023/04/05 04:14:26;;;;;;;5.60;5.10;;;;;;;-4.51;100.00;96778.72;5072555;28;20906;-74
2023/04/05 04:17:26;;;;;;;9.03;4.47;;;;;;;-4.60;100.00;96777.44;5055726;28;20436;-74
2023/04/05 04:20:13;;;;;;;5.03;4.40;;;;;;;-4.58;100.00;96762.53;5058959;28;20574;-74
2023/04/05 04:22:52;;;;;;;5.83;4.70;;;;;;;-4.72;100.00;96735.34;5040501;28;20521;-74
2023/04/05 04:25:38;;;;;;;4.53;3.83;;;;;;;-4.69;100.00;96750.38;5073877;28;20412;-74
2023/04/05 04:28:33;;;;;;;4.60;3.90;;;;;;;-4.65;100.00;96760.03;5041207;28;20441;-73
2023/04/05 04:31:13;;;;;;;6.10;5.60;;;;;;;-4.56;100.00;96766.44;5055459;28;20440;-73
2023/04/05 04:33:58;;;;;;;4.17;3.80;;;;;;;-4.75;100.00;96736.56;5052421;28;20449;-73
2023/04/05 04:36:45;;;;;;;5.30;4.27;;;;;;;-4.56;100.00;96766.44;5055499;28;20451;-74
2023/04/05 04:39:14;;;;;;;6.00;4.57;;;;;;;-4.53;100.00;96765.25;5073297;28;20948;-74
2023/04/05 04:42:10;;;;;;;7.43;6.70;;;;;;;-4.64;100.00;96760.84;5055274;28;20464;-74
2023/04/05 04:44:53;;;;;;;7.30;6.10;;;;;;;-4.86;100.00;96766.44;5044724;28;20468;-74
2023/04/05 04:47:29;;;;;;;7.97;4.70;;;;;;;-5.01;100.00;96745.41;5055239;28;20519;-74
2023/04/05 04:50:14;;;;;;;4.97;4.47;;;;;;;-4.97;100.00;96743.19;5057875;28;20420;-74
2023/04/05 04:52:41;;;;;;;4.67;4.27;;;;;;;-4.79;100.00;96771.53;5045843;28;20447;-74
2023/04/05 04:55:09;;;;;;;4.90;4.47;;;;;;;-4.69;100.00;96776.94;5074965;28;20833;-74
2023/04/05 04:57:36;;;;;;;4.90;4.47;;;;;;;-5.00;100.00;96741.84;5075199;28;20423;-73
2023/04/05 05:00:10;;;;;;;3.23;2.93;;;;;;;-4.94;100.00;96759.03;5074982;28;20969;-74
2023/04/05 05:02:38;;;;;;;4.83;3.00;;;;;;;-4.92;100.00;96779.44;5093066;28;20474;-74
2023/04/05 05:05:06;;;;;;;4.87;3.27;;;;;;;-5.02;100.00;96782.50;5092895;28;20455;-74
2023/04/05 05:07:34;;;;;;;5.70;3.20;;;;;;;-5.16;100.00;96737.28;5074677;28;20997;-74
2023/04/05 05:10:01;;;;;;;7.07;3.00;;;;;;;-4.78;100.00;96786.78;5074942;28;20479;-74
2023/04/05 05:12:30;;;;;;;8.13;3.20;;;;;;;-5.00;100.00;96753.94;5092677;28;20492;-74
2023/04/05 05:14:56;;;;;;;4.30;3.63;;;;;;;-4.89;100.00;96766.88;5074564;28;20436;-74
2023/04/05 05:17:24;;;;;;;4.23;3.93;;;;;;;-4.70;100.00;96793.44;5074617;28;20526;-74
2023/04/05 05:19:51;;;;;;;4.27;3.23;;;;;;;-4.51;100.00;96791.63;5092669;28;20485;-74
2023/04/05 05:22:21;;;;;;;3.90;3.47;;;;;;;-4.50;100.00;96772.53;5074167;28;20495;-73
2023/04/05 05:24:48;;;;;;;4.77;4.03;;;;;;;-4.50;100.00;96752.69;5074338;28;20459;-73
2023/04/05 05:27:14;;;;;;;3.80;3.40;;;;;;;-4.40;100.00;96759.91;5074630;28;20522;-74
2023/04/05 05:29:41;;;;;;;8.07;4.93;;;;;;;-4.25;100.00;96773.19;5092533;28;20459;-74
2023/04/05 05:32:08;;;;;;;6.43;5.13;;;;;;;-4.08;100.00;96799.13;5074366;28;20558;-74
2023/04/05 05:34:36;;;;;;;9.13;6.00;;;;;;;-4.09;100.00;96784.66;5057955;28;20999;-74
2023/04/05 05:37:02;;;;;;;6.67;5.27;;;;;;;-3.80;100.00;96795.16;5074443;28;20509;-74
2023/04/05 05:39:29;;;;;;;8.60;5.50;;;;;;;-3.74;100.00;96799.41;5064334;28;20523;-73
2023/04/05 05:41:56;;;;;;;7.13;5.10;;;;;;;-3.81;100.00;96775.50;5030159;28;20509;-73
2023/04/05 05:44:22;;;;;;;6.80;6.00;;;;;;;-3.90;100.00;96767.28;5037892;28;21067;-73
2023/04/05 05:46:49;;;;;;;4.87;4.00;;;;;;;-3.81;100.00;96767.75;5063683;28;20511;-74
2023/04/05 05:49:16;;;;;;;8.07;4.60;;;;;;;-3.73;100.00;96775.97;5047436;28;20443;-73
2023/04/05 05:51:42;;;;;;;5.63;4.70;;;;;;;-3.49;100.00;96792.22;5092325;28;20454;-73
2023/04/05 05:54:09;;;;;;;7.33;5.27;;;;;;;-3.45;100.00;96785.63;5074193;28;20526;-73
2023/04/05 05:56:36;;;;;;;5.50;5.00;;;;;;;-3.58;100.00;96765.97;5092572;28;20769;-73
2023/04/05 05:59:02;;;;;;;8.67;6.27;;;;;;;-3.19;100.00;96806.84;5074203;28;20465;-73
2023/04/05 06:01:29;;;;;;;6.33;5.73;;;;;;;-3.33;100.00;96780.44;5057579;28;20464;-73
2023/04/05 06:03:56;;;;;;;4.60;4.20;;;;;;;-3.41;100.00;96763.47;5074397;28;20540;-73
2023/04/05 06:06:23;;;;;;;5.17;4.67;;;;;;;-3.11;100.00;96796.91;5092075;28;20439;-73
2023/04/05 06:08:50;;;;;;;4.40;4.00;;;;;;;-3.29;100.00;96760.88;5074003;28;20434;-73
2023/04/05 06:11:21;;;;;;;5.17;4.67;;;;;;;-2.97;100.00;96792.28;5074111;28;20450;-73
2023/04/05 06:13:51;;;;;;;6.00;4.70;;;;;;;-3.01;100.00;96804.91;5057372;28;20944;-73
2023/04/05 06:16:18;;;;;;;9.00;8.10;;;;;;;-2.83;100.00;96811.72;5073784;28;20496;-73
2023/04/05 06:18:44;;;;;;;13.10;10.77;;;;;;;-2.68;100.00;96808.63;5092110;28;21000;-73
2023/04/05 06:21:11;;;;;;;17.23;15.40;;;;;;;-2.65;100.00;96815.16;5092116;28;20496;-73
2023/04/05 06:23:40;;;;;;;22.37;14.67;;;;;;;-2.62;100.00;96805.13;5074005;28;20546;-73
2023/04/05 06:26:08;;;;;;;16.97;14.93;;;;;;;-3.03;100.00;96734.50;5073613;28;20431;-73
2023/04/05 06:28:34;;;;;;;12.73;11.40;;;;;;;-2.47;100.00;96799.47;5073745;28;21002;-73
2023/04/05 06:31:01;;;;;;;18.23;11.90;;;;;;;-2.49;100.00;96778.19;5057070;28;20438;-73
2023/04/05 06:33:27;;;;;;;16.47;12.80;;;;;;;-2.14;100.00;96803.91;5073789;28;20458;-74
2023/04/05 06:35:54;;;;;;;9.90;6.40;;;;;;;-1.84;100.00;96811.41;5057166;28;20505;-74
2023/04/05 06:38:21;;;;;;;6.90;6.30;;;;;;;-2.04;100.00;96777.41;5094941;28;20924;-74
2023/04/05 06:40:48;;;;;;;11.37;6.17;;;;;;;-2.00;100.00;96773.31;5060458;28;20857;-74
2023/04/05 06:43:14;;;;;;;5.53;4.50;;;;;;;-1.76;100.00;96797.28;5053900;28;21053;-74
2023/04/05 06:45:41;;;;;;;11.23;5.90;;;;;;;-1.55;100.00;96809.53;5053723;28;20535;-74
2023/04/05 06:48:08;;;;;;;8.87;7.33;;;;;;;-1.54;100.00;96791.16;5075503;28;20420;-74
2023/04/05 06:50:35;;;;;;;6.20;5.70;;;;;;;-1.65;100.00;96754.94;5054118;28;20458;-74
2023/04/05 06:53:02;;;;;;;10.40;6.87;;;;;;;-0.95;100.00;96782.84;5050703;28;20906;-74
2023/04/05 06:55:29;;;;;;;9.23;5.20;;;;;;;-0.53;100.00;96793.47;5083792;28;20422;-74
2023/04/05 06:57:56;;;;;;;9.50;5.10;;;;;;;-0.04;100.00;96809.00;5119339;28;20427;-74
2023/04/05 07:00:22;;;;;;;8.57;6.03;;;;;;;-0.49;100.00;96749.63;5085503;28;20522;-74
2023/04/05 07:02:49;;;;;;;6.13;4.80;;;;;;;0.26;100.00;96814.47;5078817;28;20545;-74
2023/04/05 07:05:16;;;;;;;10.03;5.87;;;;;;;0.51;100.00;96808.66;5078796;28;20469;-74
2023/04/05 07:07:44;;;;;;;5.33;4.83;;;;;;;-0.03;100.00;96714.41;5079150;28;20451;-74
2023/04/05 07:10:11;;;;;;;6.63;4.90;;;;;;;0.99;100.00;96811.31;5054120;28;20437;-74
2023/04/05 07:12:38;;;;;;;5.27;4.43;;;;;;;1.14;100.00;96774.94;5067664;28;20444;-74
2023/04/05 07:15:06;;;;;;;8.43;5.10;;;;;;;1.19;100.00;96754.09;5055154;28;20951;-74
2023/04/05 07:17:34;;;;;;;8.60;4.87;;;;;;;0.80;100.00;96756.28;5013939;28;20522;-73
2023/04/05 07:20:01;;;;;;;8.77;4.83;;;;;;;1.45;100.00;96794.03;5056337;28;20444;-73
2023/04/05 07:22:27;;;;;;;4.90;4.30;;;;;;;1.00;100.00;96745.19;5065858;28;20447;-73
2023/04/05 07:24:54;;;;;;;7.57;4.90;;;;;;;1.21;100.00;96702.56;5051214;28;20490;-73
2023/04/05 07:27:21;;;;;;;10.67;4.43;;;;;;;1.56;100.00;96734.94;5097022;28;20434;-73
2023/04/05 07:29:48;;;;;;;12.97;4.33;;;;;;;1.52;100.00;96713.84;5063104;28;21070;-73
2023/04/05 07:32:14;;;;;;;5.17;3.77;;;;;;;1.87;100.00;96728.75;5079919;28;20463;-73
2023/04/05 07:34:41;;;;;;;11.40;5.17;;;;;;;1.65;100.00;96755.03;5080220;28;20446;-73
2023/04/05 07:37:08;;;;;;;4.30;3.90;;;;;;;2.53;100.00;96812.16;5065325;28;20437;-73
2023/04/05 07:39:35;;;;;;;7.90;4.00;;;;;;;2.48;100.00;96778.25;5056210;28;20866;-73
2023/04/05 07:42:02;;;;;;;3.10;2.80;;;;;;;1.82;100.00;96720.13;5037099;28;20448;-73
2023/04/05 07:44:28;;;;;;;4.60;2.90;;;;;;;2.36;100.00;96770.69;5043720;28;20466;-73
2023/04/05 07:46:55;;;;;;;4.93;3.40;;;;;;;2.94;100.00;96817.34;5077092;28;20459;-73
2023/04/05 07:49:26;;;;;;;4.23;2.60;;;;;;;3.08;96.24;96823.59;5040843;28;20516;-73
2023/04/05 07:51:55;;;;;;;4.07;3.00;;;;;;;1.79;92.04;96624.97;5066207;28;20448;-73
2023/04/05 07:54:22;;;;;;;2.73;2.50;;;;;;;2.79;86.99;96810.31;5073544;28;20449;-73
2023/04/05 07:56:49;;;;;;;5.03;2.20;;;;;;;2.99;87.10;96806.09;5074143;28;20468;-73
2023/04/05 07:59:16;;;;;;;4.73;2.97;;;;;;;2.83;84.34;96789.69;5080957;28;20434;-73
2023/04/05 08:01:43;;;;;;;4.33;2.57;;;;;;;3.20;83.20;96799.75;5080002;28;20451;-73
2023/04/05 08:04:09;;;;;;;3.83;3.30;;;;;;;3.17;86.08;96782.78;5080479;28;20460;-73
2023/04/05 08:06:36;;;;;;;4.00;3.47;;;;;;;3.26;82.78;96804.72;5080887;28;20463;-73
2023/04/05 08:09:04;;;;;;;3.00;2.70;;;;;;;3.18;84.45;96763.44;5081772;28;20469;-73
2023/04/05 08:11:32;;;;;;;5.87;3.40;;;;;;;3.26;83.57;96804.72;5080805;28;20504;-73
2023/04/05 08:13:58;;;;;;;5.23;3.30;;;;;;;3.08;81.25;96760.91;5079797;28;20439;-73
2023/04/05 08:16:26;;;;;;;4.00;2.73;;;;;;;3.61;80.13;96804.84;5063749;28;20457;-73
2023/04/05 08:18:53;;;;;;;9.13;3.90;;;;;;;3.25;81.75;96756.13;5064351;28;20431;-73
2023/04/05 08:21:21;;;;;;;7.37;3.60;;;;;;;3.16;80.80;96733.44;5081218;28;20496;-73
2023/04/05 08:23:49;;;;;;;3.57;3.23;;;;;;;3.62;79.48;96783.66;5080793;28;20440;-73
2023/04/05 08:26:16;;;;;;;4.10;3.03;;;;;;;3.96;83.02;96754.13;5063506;28;20445;-73
2023/04/05 08:28:43;;;;;;;5.73;3.50;;;;;;;3.07;76.74;96737.63;5079228;28;20439;-73
2023/04/05 08:31:09;;;;;;;3.50;3.20;;;;;;;3.14;79.19;96728.47;5080797;28;20431;-73
2023/04/05 08:33:39;;;;;;;4.30;2.97;;;;;;;2.79;78.20;96758.09;5100109;28;20514;-73
2023/04/05 08:36:08;;;;;;;3.73;3.43;;;;;;;2.89;78.50;96789.41;5048116;28;20453;-73
2023/04/05 08:38:35;;;;;;;4.50;3.73;;;;;;;2.87;77.95;96790.72;5051390;28;20451;-74
2023/04/05 08:41:26;;;;;;;3.63;3.30;;;;;;;3.03;76.36;96768.75;5039523;28;20434;-74
2023/04/05 08:43:56;;;;;;;6.77;3.43;;;;;;;3.20;76.00;96799.75;5052598;28;20455;-74
2023/04/05 08:46:24;;;;;;;3.27;2.97;;;;;;;3.68;77.29;96793.03;5069340;28;20428;-74
2023/04/05 08:48:51;;;;;;;7.50;4.00;;;;;;;3.90;75.91;96760.47;5077011;28;20420;-74
2023/04/05 08:51:20;;;;;;;5.63;3.50;;;;;;;3.99;73.93;96792.81;5049038;28;20801;-74
2023/04/05 08:53:47;;;;;;;3.70;3.40;;;;;;;3.16;72.09;96739.44;5042050;28;20436;-74
2023/04/05 08:56:18;;;;;;;5.87;3.27;;;;;;;2.76;72.85;96719.47;5058711;28;20436;-74
2023/04/05 08:58:50;;;;;;;6.63;3.67;;;;;;;2.77;73.69;96770.63;5042730;28;20455;-74
2023/04/05 09:01:17;;;;;;;10.13;3.93;;;;;;;2.65;72.81;96778.75;5054397;28;20429;-74
2023/04/05 09:03:45;;;;;;;4.40;3.80;;;;;;;2.38;72.67;96666.06;5074354;28;20425;-73
2023/04/05 09:06:14;;;;;;;3.07;2.87;;;;;;;2.55;72.24;96682.22;5062436;28;20487;-73
2023/04/05 09:08:41;;;;;;;4.13;3.30;;;;;;;2.70;71.74;96662.34;5056493;28;20451;-73
2023/04/05 09:11:10;;;;;;;3.20;2.90;;;;;;;2.34;71.35;96636.34;5057167;28;20531;-73
2023/04/05 09:13:37;;;;;;;3.57;3.27;;;;;;;3.15;71.48;96805.78;5042888;28;20463;-73
2023/04/05 09:16:04;;;;;;;5.57;3.53;;;;;;;2.42;72.03;96757.66;5061262;28;20455;-74
2023/04/05 09:18:30;;;;;;;3.60;3.30;;;;;;;2.60;71.96;96762.31;5073385;28;20824;-74
2023/04/05 09:21:03;;;;;;;7.43;3.57;;;;;;;2.55;72.07;96765.75;5052836;28;20441;-74
2023/04/05 09:23:30;;;;;;;6.37;3.27;;;;;;;2.66;72.08;96795.19;5036541;28;20465;-74
2023/04/05 09:25:57;;;;;;;8.67;4.80;;;;;;;3.17;72.84;96795.06;5050055;28;20460;-74
2023/04/05 09:28:40;;;;;;;6.10;3.73;;;;;;;3.18;73.73;96742.56;5062639;28;20452;-74
2023/04/05 09:31:07;;;;;;;3.53;3.23;;;;;;;3.32;71.66;96783.78;5048951;28;20435;-74
2023/04/05 09:33:34;;;;;;;5.60;3.77;;;;;;;2.89;70.98;96736.41;5039328;28;20478;-74
2023/04/05 09:36:01;;;;;;;3.90;3.27;;;;;;;3.79;69.97;96786.69;5073678;28;20519;-74
2023/04/05 09:38:42;;;;;;;4.70;3.63;;;;;;;4.09;69.88;96790.94;5074214;28;20462;-74
2023/04/05 09:41:12;;;;;;;5.97;3.53;;;;;;;4.40;68.13;96765.28;5072683;28;20470;-74
2023/04/05 09:43:40;;;;;;;6.80;3.77;;;;;;;4.46;70.79;96742.47;5052792;28;20434;-74
2023/04/05 09:46:38;;;;;;;3.93;3.43;;;;;;;4.66;67.94;96791.25;5035951;28;20458;-74
2023/04/05 09:49:08;;;;;;;5.20;4.73;;;;;;;4.57;69.33;96745.78;5071672;28;20522;-74
2023/04/05 09:51:37;;;;;;;4.63;4.23;;;;;;;4.15;67.04;96765.53;5060448;28;20461;-74
2023/04/05 09:54:09;;;;;;;4.50;4.10;;;;;;;4.20;68.92;96786.41;5058494;28;20440;-74
2023/04/05 09:56:38;;;;;;;5.23;3.83;;;;;;;4.55;69.10;96787.19;5050782;28;20433;-74
2023/04/05 09:59:10;;;;;;;4.83;3.83;;;;;;;4.26;68.47;96732.19;5045448;28;20767;-74
2023/04/05 10:01:38;;;;;;;4.60;4.00;;;;;;;4.15;68.44;96718.44;5086154;28;20482;-74
2023/04/05 10:04:07;;;;;;;6.47;5.00;;;;;;;4.78;68.24;96786.41;5051727;28;20453;-74
2023/04/05 10:06:37;;;;;;;5.00;4.60;;;;;;;4.27;66.94;96784.25;5062913;28;20535;-74
2023/04/05 10:09:05;;;;;;;4.00;3.67;;;;;;;4.10;66.79;96724.47;5065914;28;20428;-74
2023/04/05 10:11:33;;;;;;;5.40;4.13;;;;;;;4.08;66.94;96739.66;5084274;28;20435;-74
2023/04/05 10:14:05;;;;;;;5.37;3.80;;;;;;;4.18;67.61;96766.81;5092928;28;20513;-74
2023/04/05 10:16:35;;;;;;;9.27;4.83;;;;;;;4.25;67.95;96780.34;5079402;28;20427;-74
2023/04/05 10:19:07;;;;;;;7.50;3.80;;;;;;;3.93;68.59;96752.06;5098457;28;20419;-73
2023/04/05 10:21:41;;;;;;;4.70;4.30;;;;;;;3.60;69.28;96758.81;5061571;28;20547;-74
2023/04/05 10:24:45;;;;;;;5.43;4.93;;;;;;;3.10;70.82;96776.31;5052317;28;20483;-74
2023/04/05 10:27:21;;;;;;;4.60;4.20;;;;;;;3.10;70.18;96765.84;5068436;28;20420;-74
2023/04/05 10:30:04;;;;;;;5.53;5.03;;;;;;;3.66;69.42;96770.81;5059389;28;20827;-74
2023/04/05 10:33:15;;;;;;;5.80;4.20;;;;;;;4.23;69.49;96774.59;5056753;28;20828;-74
2023/04/05 10:35:54;;;;;;;7.47;5.20;;;;;;;4.59;68.88;96775.09;5031605;28;20468;-74
2023/04/05 10:38:24;;;;;;;6.20;4.37;;;;;;;4.44;69.29;96713.19;5088060;28;20422;-74
2023/04/05 10:41:11;;;;;;;4.63;4.20;;;;;;;4.18;66.67;96758.97;5058230;28;20436;-74
2023/04/05 10:43:39;;;;;;;6.00;4.00;;;;;;;3.67;67.09;96759.31;5042050;28;20465;-74
2023/04/05 10:46:07;;;;;;;5.27;3.97;;;;;;;3.94;67.95;96759.66;5058437;28;20460;-74
2023/04/05 10:48:52;;;;;;;5.10;4.67;;;;;;;4.01;67.72;96738.44;5041593;28;20440;-74
2023/04/05 10:51:22;;;;;;;6.57;5.20;;;;;;;3.43;68.61;96699.06;5058521;28;20538;-74
2023/04/05 10:53:50;;;;;;;4.50;4.10;;;;;;;3.99;67.53;96759.59;5041922;28;20431;-74
2023/04/05 10:56:19;;;;;;;8.40;4.40;;;;;;;3.93;67.13;96712.84;5042250;28;20486;-74
2023/04/05 10:58:48;;;;;;;5.33;3.90;;;;;;;3.12;66.42;96604.41;5058216;28;20435;-74
2023/04/05 11:01:17;;;;;;;6.40;4.30;;;;;;;3.73;66.18;96693.63;5058928;28;20861;-74
2023/04/05 11:03:47;;;;;;;4.90;4.50;;;;;;;4.26;66.65;96769.59;5077032;28;20458;-74
2023/04/05 11:06:20;;;;;;;4.30;3.90;;;;;;;4.11;66.01;96760.03;5059400;28;20521;-74
2023/04/05 11:08:50;;;;;;;4.03;3.80;;;;;;;4.12;66.78;96738.03;5062036;28;20436;-74
2023/04/05 11:11:18;;;;;;;6.07;5.47;;;;;;;4.74;67.31;96754.00;5053506;28;20430;-74
2023/04/05 11:13:50;;;;;;;4.97;4.57;;;;;;;5.13;64.69;96745.19;5068579;28;20456;-74
2023/04/05 11:16:17;;;;;;;6.10;4.87;;;;;;;5.05;66.09;96726.38;5069042;28;20933;-74
2023/04/05 11:18:46;;;;;;;5.00;4.40;;;;;;;4.73;64.47;96710.53;5053981;28;20448;-74
2023/04/05 11:21:24;;;;;;;5.10;4.70;;;;;;;5.57;64.01;96735.16;5069691;28;20526;-74
2023/04/05 11:24:05;;;;;;;4.90;3.80;;;;;;;6.12;62.76;96760.91;5056437;28;20838;-74
2023/04/05 11:26:51;;;;;;;7.10;4.10;;;;;;;6.37;64.10;96757.09;5079350;28;20451;-74
2023/04/05 11:29:38;;;;;;;5.13;4.63;;;;;;;5.07;62.67;96733.97;5060163;28;20439;-74
2023/04/05 11:32:11;;;;;;;6.80;3.90;;;;;;;5.23;62.31;96675.06;5059725;28;20463;-74
2023/04/05 11:34:40;;;;;;;4.30;3.90;;;;;;;6.19;62.48;96725.34;5059907;28;20435;-74
2023/04/05 11:37:07;;;;;;;4.30;3.90;;;;;;;7.03;61.08;96730.41;5053834;28;20437;-74
2023/04/05 11:39:36;;;;;;;4.13;3.73;;;;;;;6.61;60.31;96717.53;5054907;28;20780;-74
2023/04/05 11:42:05;;;;;;;5.50;4.50;;;;;;;6.84;61.81;96744.72;5066375;28;20491;-74
2023/04/05 11:44:43;;;;;;;8.33;5.23;;;;;;;6.71;60.91;96746.28;5075062;28;20420;-75
2023/04/05 11:47:10;;;;;;;7.17;4.10;;;;;;;5.48;62.32;96741.34;5038412;28;20437;-74